sensor_id;sensor_type;location;lat;lon;timestamp;temperature;humidity
13494;DHT22;6819;50.886;4.332;2022-09-21T12:19:45;9.70;99.90
13494;DHT22;6819;50.886;4.332;2022-09-21T12:22:15;23.70;99.20
13494;DHT22;6819;50.886;4.332;2022-09-21T12:29:52;23.90;98.40
13494;DHT22;6819;50.886;4.332;2022-09-21T12:32:42;23.60;99.90
13494;DHT22;6819;50.886;4.332;2022-09-21T12:35:18;23.80;99.90
13494;DHT22;6819;50.886;4.332;2022-09-21T12:37:58;24.30;99.90
13494;DHT22;6819;50.886;4.332;2022-09-21T12:40:37;24.30;99.30
13494;DHT22;6819;50.886;4.332;2022-09-21T12:43:39;23.80;99.90
13494;DHT22;6819;50.886;4.332;2022-09-21T12:46:18;23.70;98.60
13494;DHT22;6819;50.886;4.332;2022-09-21T12:48:45;24.30;98.90
13494;DHT22;6819;50.886;4.332;2022-09-21T12:51:24;24.60;97.80
13494;DHT22;6819;50.886;4.332;2022-09-21T12:53:57;25.20;96.70
13494;DHT22;6819;50.886;4.332;2022-09-21T12:56:48;24.70;97.20
13494;DHT22;6819;50.886;4.332;2022-09-21T13:02:03;23.50;98.00
13494;DHT22;6819;50.886;4.332;2022-09-21T13:04:44;23.00;98.40
13494;DHT22;6819;50.886;4.332;2022-09-21T13:48:20;22.50;99.80
13494;DHT22;6819;50.886;4.332;2022-09-21T13:50:50;21.40;99.90
13494;DHT22;6819;50.886;4.332;2022-09-21T13:55:53;22.70;99.90
13494;DHT22;6819;50.886;4.332;2022-09-21T13:58:31;23.30;99.90
13494;DHT22;6819;50.886;4.332;2022-09-21T14:01:06;23.60;99.90
13494;DHT22;6819;50.886;4.332;2022-09-21T14:03:44;24.20;99.80
13494;DHT22;6819;50.886;4.332;2022-09-21T14:11:38;25.70;97.40
13494;DHT22;6819;50.886;4.332;2022-09-21T14:14:12;26.00;93.90
13494;DHT22;6819;50.886;4.332;2022-09-21T14:24:43;27.50;91.90
13494;DHT22;6819;50.886;4.332;2022-09-21T14:27:18;27.70;92.60
13494;DHT22;6819;50.886;4.332;2022-09-21T14:29:51;27.70;91.10
13494;DHT22;6819;50.886;4.332;2022-09-21T14:32:21;27.80;89.00
13494;DHT22;6819;50.886;4.332;2022-09-21T14:34:50;28.10;89.00
13494;DHT22;6819;50.886;4.332;2022-09-21T14:37:39;28.20;86.50
13494;DHT22;6819;50.886;4.332;2022-09-21T14:40:20;28.10;84.40
13494;DHT22;6819;50.886;4.332;2022-09-21T14:42:49;28.50;84.10
13494;DHT22;6819;50.886;4.332;2022-09-21T14:45:17;28.60;81.30
13494;DHT22;6819;50.886;4.332;2022-09-21T14:48:15;28.40;81.20
13494;DHT22;6819;50.886;4.332;2022-09-21T14:51:00;27.40;83.10
13494;DHT22;6819;50.886;4.332;2022-09-21T15:02:25;25.20;92.10
13494;DHT22;6819;50.886;4.332;2022-09-21T15:07:30;23.90;94.20
13494;DHT22;6819;50.886;4.332;2022-09-21T15:13:23;23.00;96.50
13494;DHT22;6819;50.886;4.332;2022-09-21T15:15:58;22.50;98.50
13494;DHT22;6819;50.886;4.332;2022-09-21T15:18:27;22.50;99.10
13494;DHT22;6819;50.886;4.332;2022-09-21T15:20:58;22.20;98.30
13494;DHT22;6819;50.886;4.332;2022-09-21T15:23:38;21.90;99.90
13494;DHT22;6819;50.886;4.332;2022-09-21T15:26:15;21.60;99.50
13494;DHT22;6819;50.886;4.332;2022-09-21T15:28:47;21.50;99.90
13494;DHT22;6819;50.886;4.332;2022-09-21T15:31:15;21.50;99.90
13494;DHT22;6819;50.886;4.332;2022-09-21T15:33:42;21.70;99.50
13494;DHT22;6819;50.886;4.332;2022-09-21T15:36:11;22.70;99.00
13494;DHT22;6819;50.886;4.332;2022-09-21T15:38:37;23.80;97.80
13494;DHT22;6819;50.886;4.332;2022-09-21T15:41:04;24.60;96.60
13494;DHT22;6819;50.886;4.332;2022-09-21T15:43:32;24.80;94.90
13494;DHT22;6819;50.886;4.332;2022-09-21T15:46:07;24.90;94.70
13494;DHT22;6819;50.886;4.332;2022-09-21T15:48:39;24.90;94.00
13494;DHT22;6819;50.886;4.332;2022-09-21T15:53:54;24.80;95.00
13494;DHT22;6819;50.886;4.332;2022-09-21T15:56:26;24.90;94.00
13494;DHT22;6819;50.886;4.332;2022-09-21T15:59:01;24.60;93.80
13494;DHT22;6819;50.886;4.332;2022-09-21T16:01:44;24.70;94.20
13494;DHT22;6819;50.886;4.332;2022-09-21T16:04:15;24.90;95.50
13494;DHT22;6819;50.886;4.332;2022-09-21T16:06:46;24.40;94.40
13494;DHT22;6819;50.886;4.332;2022-09-21T16:11:51;24.70;94.50
13494;DHT22;6819;50.886;4.332;2022-09-21T16:14:18;24.50;93.70
13494;DHT22;6819;50.886;4.332;2022-09-21T16:19:40;23.80;93.20
13494;DHT22;6819;50.886;4.332;2022-09-21T16:22:12;23.40;94.20
13494;DHT22;6819;50.886;4.332;2022-09-21T16:24:48;23.30;94.60
13494;DHT22;6819;50.886;4.332;2022-09-21T16:27:20;23.10;94.80
13494;DHT22;6819;50.886;4.332;2022-09-21T16:29:47;22.70;95.30
13494;DHT22;6819;50.886;4.332;2022-09-21T16:34:47;22.20;95.70
13494;DHT22;6819;50.886;4.332;2022-09-21T16:39:47;21.80;96.50
13494;DHT22;6819;50.886;4.332;2022-09-21T16:42:13;22.00;96.20
13494;DHT22;6819;50.886;4.332;2022-09-21T16:44:40;21.80;96.10
13494;DHT22;6819;50.886;4.332;2022-09-21T16:49:39;21.80;95.50
13494;DHT22;6819;50.886;4.332;2022-09-21T16:52:05;21.60;95.80
13494;DHT22;6819;50.886;4.332;2022-09-21T16:54:32;21.70;96.50
13494;DHT22;6819;50.886;4.332;2022-09-21T16:57:00;21.60;96.80
13494;DHT22;6819;50.886;4.332;2022-09-21T16:59:27;21.30;96.60
13494;DHT22;6819;50.886;4.332;2022-09-21T17:01:55;21.10;97.00
13494;DHT22;6819;50.886;4.332;2022-09-21T17:04:24;20.70;98.00
13494;DHT22;6819;50.886;4.332;2022-09-21T17:06:50;20.50;99.00
13494;DHT22;6819;50.886;4.332;2022-09-21T17:09:23;20.20;99.90
13494;DHT22;6819;50.886;4.332;2022-09-21T17:11:49;19.90;99.90
13494;DHT22;6819;50.886;4.332;2022-09-21T17:14:17;19.80;99.90
13494;DHT22;6819;50.886;4.332;2022-09-21T17:16:55;19.80;99.90
13494;DHT22;6819;50.886;4.332;2022-09-21T17:19:22;19.60;99.90
13494;DHT22;6819;50.886;4.332;2022-09-21T17:21:48;19.30;99.90
13494;DHT22;6819;50.886;4.332;2022-09-21T17:24:14;19.10;99.90
13494;DHT22;6819;50.886;4.332;2022-09-21T17:26:42;19.20;99.90
13494;DHT22;6819;50.886;4.332;2022-09-21T17:29:25;19.00;99.90
13494;DHT22;6819;50.886;4.332;2022-09-21T17:31:53;18.70;99.90
13494;DHT22;6819;50.886;4.332;2022-09-21T17:34:29;18.50;99.90
13494;DHT22;6819;50.886;4.332;2022-09-21T17:36:59;18.20;99.90
13494;DHT22;6819;50.886;4.332;2022-09-21T17:39:24;18.00;99.90
13494;DHT22;6819;50.886;4.332;2022-09-21T17:41:51;17.90;99.90
13494;DHT22;6819;50.886;4.332;2022-09-21T17:47:17;17.60;99.90
13494;DHT22;6819;50.886;4.332;2022-09-21T17:49:44;17.40;99.90
13494;DHT22;6819;50.886;4.332;2022-09-21T17:52:19;17.20;99.90
13494;DHT22;6819;50.886;4.332;2022-09-21T17:55:04;17.10;99.90
13494;DHT22;6819;50.886;4.332;2022-09-21T17:58:13;17.00;99.90
13494;DHT22;6819;50.886;4.332;2022-09-21T18:03:28;16.70;99.90
13494;DHT22;6819;50.886;4.332;2022-09-21T18:05:55;16.50;99.90
13494;DHT22;6819;50.886;4.332;2022-09-21T18:08:27;16.40;99.90
13494;DHT22;6819;50.886;4.332;2022-09-21T18:14:08;16.30;99.90
13494;DHT22;6819;50.886;4.332;2022-09-21T18:16:59;16.10;99.90
13494;DHT22;6819;50.886;4.332;2022-09-21T18:24:47;15.70;99.90
13494;DHT22;6819;50.886;4.332;2022-09-21T18:27:14;15.60;99.90
13494;DHT22;6819;50.886;4.332;2022-09-21T18:29:45;15.60;99.90
13494;DHT22;6819;50.886;4.332;2022-09-21T18:35:39;15.30;99.90
13494;DHT22;6819;50.886;4.332;2022-09-21T18:38:26;15.20;99.90
13494;DHT22;6819;50.886;4.332;2022-09-21T18:46:12;15.10;99.90
13494;DHT22;6819;50.886;4.332;2022-09-21T18:51:57;14.90;99.90
13494;DHT22;6819;50.886;4.332;2022-09-21T18:54:26;14.70;99.90
13494;DHT22;6819;50.886;4.332;2022-09-21T18:56:52;14.60;99.90
13494;DHT22;6819;50.886;4.332;2022-09-21T18:59:18;14.50;99.90
13494;DHT22;6819;50.886;4.332;2022-09-21T19:01:45;14.40;99.90
13494;DHT22;6819;50.886;4.332;2022-09-21T19:04:13;14.40;99.90
13494;DHT22;6819;50.886;4.332;2022-09-21T19:10:44;14.30;99.90
13494;DHT22;6819;50.886;4.332;2022-09-21T19:18:30;14.20;99.90
13494;DHT22;6819;50.886;4.332;2022-09-21T19:23:59;14.20;99.90
13494;DHT22;6819;50.886;4.332;2022-09-21T19:26:34;14.10;99.90
13494;DHT22;6819;50.886;4.332;2022-09-21T19:31:51;14.00;99.90
13494;DHT22;6819;50.886;4.332;2022-09-21T19:34:18;13.90;99.90
13494;DHT22;6819;50.886;4.332;2022-09-21T19:36:45;13.80;99.90
13494;DHT22;6819;50.886;4.332;2022-09-21T19:39:14;13.80;99.90
13494;DHT22;6819;50.886;4.332;2022-09-21T19:42:05;13.70;99.90
13494;DHT22;6819;50.886;4.332;2022-09-21T19:47:27;13.60;99.90
13494;DHT22;6819;50.886;4.332;2022-09-21T19:50:14;13.60;99.90
13494;DHT22;6819;50.886;4.332;2022-09-21T19:52:40;13.50;99.90
13494;DHT22;6819;50.886;4.332;2022-09-21T19:55:18;13.40;99.90
13494;DHT22;6819;50.886;4.332;2022-09-21T19:58:02;13.40;99.90
13494;DHT22;6819;50.886;4.332;2022-09-21T20:00:51;13.40;99.90
13494;DHT22;6819;50.886;4.332;2022-09-21T20:03:38;13.30;99.90
13494;DHT22;6819;50.886;4.332;2022-09-21T20:09:05;13.20;99.90
13494;DHT22;6819;50.886;4.332;2022-09-21T20:11:54;13.10;99.90
13494;DHT22;6819;50.886;4.332;2022-09-21T20:14:41;13.10;99.90
13494;DHT22;6819;50.886;4.332;2022-09-21T20:17:12;13.10;99.90
13494;DHT22;6819;50.886;4.332;2022-09-21T20:22:41;13.00;99.90
13494;DHT22;6819;50.886;4.332;2022-09-21T20:28:13;12.90;99.90
13494;DHT22;6819;50.886;4.332;2022-09-21T20:30:39;12.90;99.90
13494;DHT22;6819;50.886;4.332;2022-09-21T20:33:09;12.80;99.90
13494;DHT22;6819;50.886;4.332;2022-09-21T20:35:36;12.80;99.90
13494;DHT22;6819;50.886;4.332;2022-09-21T20:38:02;12.80;99.90
13494;DHT22;6819;50.886;4.332;2022-09-21T20:40:28;12.80;99.90
13494;DHT22;6819;50.886;4.332;2022-09-21T20:42:57;12.80;99.90
13494;DHT22;6819;50.886;4.332;2022-09-21T20:45:25;12.70;99.90
13494;DHT22;6819;50.886;4.332;2022-09-21T20:47:52;12.70;99.90
13494;DHT22;6819;50.886;4.332;2022-09-21T20:50:19;12.60;99.90
13494;DHT22;6819;50.886;4.332;2022-09-21T20:52:46;12.60;99.90
13494;DHT22;6819;50.886;4.332;2022-09-21T20:55:14;12.60;99.90
13494;DHT22;6819;50.886;4.332;2022-09-21T20:57:42;12.50;99.90
13494;DHT22;6819;50.886;4.332;2022-09-21T21:00:13;12.50;99.90
13494;DHT22;6819;50.886;4.332;2022-09-21T21:02:40;12.40;99.90
13494;DHT22;6819;50.886;4.332;2022-09-21T21:05:07;12.40;99.90
13494;DHT22;6819;50.886;4.332;2022-09-21T21:07:33;12.30;99.90
13494;DHT22;6819;50.886;4.332;2022-09-21T21:12:26;12.20;99.90
13494;DHT22;6819;50.886;4.332;2022-09-21T21:22:12;12.20;99.90
13494;DHT22;6819;50.886;4.332;2022-09-21T21:49:01;12.00;99.90
13494;DHT22;6819;50.886;4.332;2022-09-21T21:51:27;11.60;99.90
13494;DHT22;6819;50.886;4.332;2022-09-21T21:53:53;11.60;99.90
13494;DHT22;6819;50.886;4.332;2022-09-21T21:56:18;11.50;99.90
13494;DHT22;6819;50.886;4.332;2022-09-21T21:58:51;11.50;99.90
13494;DHT22;6819;50.886;4.332;2022-09-21T22:03:50;11.50;99.90
